Calvert City, Kentucky
Current Conditions -  °F | °C
As of 7:35 PM on Monday 22 Dec 2014 (Local Time) from KM25 Reporting Station
Moderate Rain Moderate Rain  
Wind Chill: 52°   Ceiling: 1000
Heat Index: 52°   Visibility: 7mi
Dew Point: 50°   Wind: 0mph
Humidity: 94%   Direction: NA
Pressure: 29.64"   Gusts: NA
Location:  37.03°N, 88.35°W
Report Text: KM25 230135Z AUTO 00000KT 7SM RA OVC010 11/10 A2964 RMK AO2
Loading
Personal Weather Stations






























Interactive Weather Map New forecast layout! Learn more

10-Day Weather Forecast

Advertisements
Track Severe Weather on mobile